Time,TemperatureF,DewpointF,PressureIn,WindDirection,WindDirectionDegrees,WindSpeedMPH,WindSpeedGustMPH,Humidity,HourlyPrecipIn,Conditions,Clouds,dailyrainin,SolarRadiationWatts/m^2,SoftwareType,DateUTC
2013-03-19 00:01:00,48.9,46.0,29.74,SSE,167,2.0,-999.0,91,-99.99,,,0.00,0,weatherlink.com 1.10,2013-03-18 23:01:00,
2013-03-19 00:17:00,49.2,47.0,29.74,SSE,167,0.0,-999.0,91,-99.99,,,0.00,0,weatherlink.com 1.10,2013-03-18 23:17:00,
2013-03-19 00:32:00,49.1,47.0,29.74,SSE,167,0.0,-999.0,91,-99.99,,,0.00,0,weatherlink.com 1.10,2013-03-18 23:32:00,
2013-03-19 00:48:00,49.6,47.0,29.74,SSE,167,2.0,-999.0,92,-99.99,,,0.00,0,weatherlink.com 1.10,2013-03-18 23:48:00,
2013-03-19 01:02:00,50.3,48.0,29.73,SSE,168,1.0,-999.0,92,-99.99,,,0.00,0,weatherlink.com 1.10,2013-03-19 00:02:00,
2013-03-19 01:18:00,50.5,48.0,29.73,SSE,167,0.0,-999.0,92,-99.99,,,0.00,0,weatherlink.com 1.10,2013-03-19 00:18:00,
2013-03-19 01:33:00,50.7,49.0,29.73,SSE,167,1.0,-999.0,92,-99.99,,,0.00,0,weatherlink.com 1.10,2013-03-19 00:33:00,
2013-03-19 01:47:00,50.5,48.0,29.72,SSE,167,0.0,-999.0,92,-99.99,,,0.00,0,weatherlink.com 1.10,2013-03-19 00:47:00,
2013-03-19 02:03:00,51.6,50.0,29.72,SSE,161,0.0,-999.0,93,-99.99,,,0.00,0,weatherlink.com 1.10,2013-03-19 01:03:00,
2013-03-19 02:19:00,51.4,50.0,29.72,SSE,161,0.0,-999.0,93,-99.99,,,0.00,0,weatherlink.com 1.10,2013-03-19 01:19:00,
2013-03-19 02:33:00,50.8,49.0,29.72,SSE,161,0.0,-999.0,93,-99.99,,,0.00,0,weatherlink.com 1.10,2013-03-19 01:33:00,
2013-03-19 02:49:00,51.1,49.0,29.71,SSE,161,0.0,-999.0,93,-99.99,,,0.00,0,weatherlink.com 1.10,2013-03-19 01:49:00,
2013-03-19 03:04:00,51.1,49.0,29.71,SSE,161,0.0,-999.0,93,-99.99,,,0.00,0,weatherlink.com 1.10,2013-03-19 02:04:00,
2013-03-19 03:19:00,51.4,50.0,29.70,SSE,161,0.0,-999.0,94,-99.99,,,0.00,0,weatherlink.com 1.10,2013-03-19 02:19:00,
2013-03-19 03:34:00,51.4,50.0,29.70,SSE,161,0.0,-999.0,94,-99.99,,,0.00,0,weatherlink.com 1.10,2013-03-19 02:34:00,
2013-03-19 03:50:00,51.1,50.0,29.70,SSE,161,0.0,-999.0,94,-99.99,,,0.00,0,weatherlink.com 1.10,2013-03-19 02:50:00,
2013-03-19 04:05:00,50.5,49.0,29.69,SSE,161,0.0,-999.0,94,-99.99,,,0.00,0,weatherlink.com 1.10,2013-03-19 03:05:00,
2013-03-19 04:20:00,49.5,48.0,29.69,SSE,161,2.0,-999.0,94,-99.99,,,0.00,0,weatherlink.com 1.10,2013-03-19 03:20:00,
2013-03-19 04:35:00,48.7,47.0,29.69,SSE,159,0.0,-999.0,94,-99.99,,,0.00,0,weatherlink.com 1.10,2013-03-19 03:35:00,
2013-03-19 04:50:00,49.3,48.0,29.68,SSE,150,3.0,-999.0,95,-99.99,,,0.00,0,weatherlink.com 1.10,2013-03-19 03:50:00,
2013-03-19 05:05:00,48.8,47.0,29.69,ESE,115,0.0,-999.0,94,-99.99,,,0.00,0,weatherlink.com 1.10,2013-03-19 04:05:00,
2013-03-19 05:20:00,49.0,48.0,29.70,ESE,112,0.0,-999.0,95,-99.99,,,0.00,0,weatherlink.com 1.10,2013-03-19 04:20:00,
2013-03-19 05:36:00,49.5,48.0,29.70,ESE,109,1.0,-999.0,95,-99.99,,,0.00,0,weatherlink.com 1.10,2013-03-19 04:36:00,
2013-03-19 06:06:00,49.6,48.0,29.70,ESE,109,0.0,-999.0,95,-99.99,,,0.00,0,weatherlink.com 1.10,2013-03-19 05:06:00,
2013-03-19 06:21:00,49.3,48.0,29.70,ESE,109,0.0,-999.0,95,-99.99,,,0.00,0,weatherlink.com 1.10,2013-03-19 05:21:00,
2013-03-19 06:36:00,49.1,48.0,29.70,ESE,107,1.0,-999.0,95,-99.99,,,0.00,0,weatherlink.com 1.10,2013-03-19 05:36:00,
2013-03-19 06:52:00,48.4,47.0,29.70,ESE,105,0.0,-999.0,95,-99.99,,,0.00,0,weatherlink.com 1.10,2013-03-19 05:52:00,
2013-03-19 07:07:00,48.2,47.0,29.70,ESE,105,1.0,-999.0,95,-99.99,,,0.01,11,weatherlink.com 1.10,2013-03-19 06:07:00,
2013-03-19 07:22:00,48.3,47.0,29.70,ESE,105,0.0,-999.0,95,-99.99,,,0.01,16,weatherlink.com 1.10,2013-03-19 06:22:00,
2013-03-19 07:37:00,48.4,47.0,29.70,ESE,105,0.0,-999.0,95,-99.99,,,0.01,25,weatherlink.com 1.10,2013-03-19 06:37:00,
2013-03-19 07:53:00,48.6,47.0,29.70,ESE,105,0.0,-999.0,95,-99.99,,,0.01,39,weatherlink.com 1.10,2013-03-19 06:53:00,
2013-03-19 08:07:00,49.2,48.0,29.70,ESE,103,4.0,-999.0,95,-99.99,,,0.01,35,weatherlink.com 1.10,2013-03-19 07:07:00,
2013-03-19 08:23:00,50.4,49.0,29.71,East,100,0.0,-999.0,96,-99.99,,,0.01,42,weatherlink.com 1.10,2013-03-19 07:23:00,
2013-03-19 08:38:00,51.5,50.0,29.70,East,100,0.0,-999.0,96,-99.99,,,0.01,67,weatherlink.com 1.10,2013-03-19 07:38:00,
2013-03-19 08:53:00,52.5,51.0,29.70,East,97,0.0,-999.0,96,-99.99,,,0.01,130,weatherlink.com 1.10,2013-03-19 07:53:00,
2013-03-19 09:08:00,53.0,52.0,29.70,East,94,3.0,-999.0,95,-99.99,,,0.01,132,weatherlink.com 1.10,2013-03-19 08:08:00,
2013-03-19 09:24:00,54.3,53.0,29.70,East,84,1.0,-999.0,94,-99.99,,,0.01,304,weatherlink.com 1.10,2013-03-19 08:24:00,
2013-03-19 09:38:00,54.7,53.0,29.69,ESE,105,3.0,-999.0,92,-99.99,,,0.01,464,weatherlink.com 1.10,2013-03-19 08:38:00,
2013-03-19 09:54:00,57.1,53.0,29.69,East,90,2.0,-999.0,86,-99.99,,,0.01,570,weatherlink.com 1.10,2013-03-19 08:54:00,
2013-03-19 10:10:00,58.2,53.0,29.70,East,96,6.0,-999.0,83,-99.99,,,0.01,629,weatherlink.com 1.10,2013-03-19 09:10:00,
2013-03-19 10:24:00,58.8,53.0,29.70,SE,142,1.0,-999.0,80,-99.99,,,0.01,264,weatherlink.com 1.10,2013-03-19 09:24:00,
2013-03-19 10:40:00,59.2,52.0,29.70,SE,124,6.0,-999.0,78,-99.99,,,0.01,218,weatherlink.com 1.10,2013-03-19 09:40:00,
2013-03-19 10:55:00,59.7,53.0,29.69,SE,128,5.0,-999.0,78,-99.99,,,0.01,700,weatherlink.com 1.10,2013-03-19 09:55:00,
2013-03-19 11:25:00,59.8,51.0,29.69,SE,144,6.0,-999.0,73,-99.99,,,0.01,733,weatherlink.com 1.10,2013-03-19 10:25:00,
2013-03-19 11:41:00,60.7,51.0,29.68,ESE,104,0.0,-999.0,71,-99.99,,,0.01,758,weatherlink.com 1.10,2013-03-19 10:41:00,
2013-03-19 11:55:00,61.6,52.0,29.68,East,94,5.0,-999.0,70,-99.99,,,0.01,766,weatherlink.com 1.10,2013-03-19 10:55:00,
2013-03-19 12:11:00,62.4,51.0,29.67,SE,134,4.0,-999.0,67,-99.99,,,0.01,788,weatherlink.com 1.10,2013-03-19 11:11:00,
2013-03-19 12:26:00,61.4,50.0,29.66,SSE,148,5.0,-999.0,66,-99.99,,,0.01,798,weatherlink.com 1.10,2013-03-19 11:26:00,
2013-03-19 12:42:00,60.9,50.0,29.66,SSE,153,5.0,-999.0,68,-99.99,,,0.01,891,weatherlink.com 1.10,2013-03-19 11:42:00,
2013-03-19 12:56:00,60.2,51.0,29.65,South,173,6.0,-999.0,71,-99.99,,,0.01,338,weatherlink.com 1.10,2013-03-19 11:56:00,
2013-03-19 13:12:00,60.7,51.0,29.65,SE,144,5.0,-999.0,71,-99.99,,,0.01,960,weatherlink.com 1.10,2013-03-19 12:12:00,
2013-03-19 13:28:00,60.3,51.0,29.64,South,169,7.0,-999.0,72,-99.99,,,0.01,953,weatherlink.com 1.10,2013-03-19 12:28:00,
2013-03-19 13:42:00,58.7,50.0,29.64,SE,144,5.0,-999.0,73,-99.99,,,0.01,269,weatherlink.com 1.10,2013-03-19 12:42:00,
2013-03-19 13:57:00,59.0,51.0,29.63,SSE,159,0.0,-999.0,75,-99.99,,,0.01,1076,weatherlink.com 1.10,2013-03-19 12:57:00,
2013-03-19 14:13:00,60.1,52.0,29.62,SSE,154,7.0,-999.0,74,-99.99,,,0.01,795,weatherlink.com 1.10,2013-03-19 13:13:00,
2013-03-19 14:28:00,61.1,51.0,29.62,South,184,5.0,-999.0,70,-99.99,,,0.01,937,weatherlink.com 1.10,2013-03-19 13:28:00,
2013-03-19 14:43:00,60.1,51.0,29.61,SSE,165,4.0,-999.0,71,-99.99,,,0.01,738,weatherlink.com 1.10,2013-03-19 13:43:00,
2013-03-19 14:58:00,61.2,51.0,29.61,SE,133,0.0,-999.0,69,-99.99,,,0.01,615,weatherlink.com 1.10,2013-03-19 13:58:00,
2013-03-19 15:14:00,60.4,51.0,29.60,SSE,159,3.0,-999.0,72,-99.99,,,0.01,726,weatherlink.com 1.10,2013-03-19 14:14:00,
2013-03-19 15:28:00,60.6,50.0,29.60,SSE,163,13.0,-999.0,69,-99.99,,,0.01,438,weatherlink.com 1.10,2013-03-19 14:28:00,
2013-03-19 15:44:00,60.2,51.0,29.59,SSE,167,7.0,-999.0,71,-99.99,,,0.01,717,weatherlink.com 1.10,2013-03-19 14:44:00,
2013-03-19 15:59:00,59.6,51.0,29.59,SSE,165,5.0,-999.0,72,-99.99,,,0.01,635,weatherlink.com 1.10,2013-03-19 14:59:00,
2013-03-19 16:15:00,59.6,51.0,29.59,SSE,163,5.0,-999.0,73,-99.99,,,0.01,497,weatherlink.com 1.10,2013-03-19 15:15:00,
2013-03-19 16:29:00,60.2,52.0,29.59,South,176,4.0,-999.0,75,-99.99,,,0.01,455,weatherlink.com 1.10,2013-03-19 15:29:00,
2013-03-19 16:45:00,59.3,51.0,29.59,South,180,11.0,-999.0,75,-99.99,,,0.01,455,weatherlink.com 1.10,2013-03-19 15:45:00,
2013-03-19 17:15:00,58.4,52.0,29.59,SSE,159,5.0,-999.0,79,-99.99,,,0.01,225,weatherlink.com 1.10,2013-03-19 16:15:00,
2013-03-19 17:31:00,58.6,52.0,29.59,SSW,198,2.0,-999.0,80,-99.99,,,0.01,225,weatherlink.com 1.10,2013-03-19 16:31:00,
2013-03-19 17:45:00,57.5,52.0,29.58,South,178,3.0,-999.0,82,-99.99,,,0.01,230,weatherlink.com 1.10,2013-03-19 16:45:00,
2013-03-19 18:01:00,57.1,52.0,29.58,South,169,2.0,-999.0,83,-99.99,,,0.01,153,weatherlink.com 1.10,2013-03-19 17:01:00,
2013-03-19 18:16:00,56.6,52.0,29.58,South,169,3.0,-999.0,83,-99.99,,,0.01,51,weatherlink.com 1.10,2013-03-19 17:16:00,
2013-03-19 18:31:00,56.0,51.0,29.58,South,169,0.0,-999.0,84,-99.99,,,0.01,56,weatherlink.com 1.10,2013-03-19 17:31:00,
2013-03-19 18:46:00,55.8,51.0,29.57,SSE,165,5.0,-999.0,85,-99.99,,,0.01,11,weatherlink.com 1.10,2013-03-19 17:46:00,
2013-03-19 19:01:00,55.3,51.0,29.57,SSE,165,4.0,-999.0,86,-99.99,,,0.01,0,weatherlink.com 1.10,2013-03-19 18:01:00,
2013-03-19 19:17:00,54.9,51.0,29.57,SSE,165,2.0,-999.0,87,-99.99,,,0.01,0,weatherlink.com 1.10,2013-03-19 18:17:00,
2013-03-19 19:32:00,54.5,51.0,29.57,SSE,165,1.0,-999.0,88,-99.99,,,0.01,0,weatherlink.com 1.10,2013-03-19 18:32:00,
2013-03-19 19:47:00,54.1,51.0,29.57,SSE,165,1.0,-999.0,89,-99.99,,,0.01,0,weatherlink.com 1.10,2013-03-19 18:47:00,
2013-03-19 20:02:00,53.9,51.0,29.57,SSE,165,0.0,-999.0,90,-99.99,,,0.01,0,weatherlink.com 1.10,2013-03-19 19:02:00,
2013-03-19 20:17:00,53.8,51.0,29.58,SSE,165,3.0,-999.0,90,-99.99,,,0.01,0,weatherlink.com 1.10,2013-03-19 19:17:00,
2013-03-19 20:33:00,53.9,51.0,29.58,SSE,165,0.0,-999.0,91,-99.99,,,0.01,0,weatherlink.com 1.10,2013-03-19 19:33:00,
2013-03-19 20:48:00,53.7,51.0,29.59,SSE,165,0.0,-999.0,91,-99.99,,,0.01,0,weatherlink.com 1.10,2013-03-19 19:48:00,
2013-03-19 21:03:00,53.7,51.0,29.58,SSE,165,0.0,-999.0,91,-99.99,,,0.01,0,weatherlink.com 1.10,2013-03-19 20:03:00,
2013-03-19 21:18:00,53.3,51.0,29.58,SSE,165,0.0,-999.0,91,-99.99,,,0.01,0,weatherlink.com 1.10,2013-03-19 20:18:00,
2013-03-19 21:33:00,52.9,50.0,29.57,SSE,165,0.0,-999.0,91,-99.99,,,0.01,0,weatherlink.com 1.10,2013-03-19 20:33:00,
2013-03-19 21:49:00,52.7,51.0,29.57,SSE,165,0.0,-999.0,92,-99.99,,,0.01,0,weatherlink.com 1.10,2013-03-19 20:49:00,
2013-03-19 22:04:00,52.7,51.0,29.58,SSE,165,0.0,-999.0,92,-99.99,,,0.01,0,weatherlink.com 1.10,2013-03-19 21:04:00,
2013-03-19 22:18:00,53.0,51.0,29.57,SSE,165,0.0,-999.0,92,-99.99,,,0.01,0,weatherlink.com 1.10,2013-03-19 21:18:00,
2013-03-19 22:34:00,52.9,51.0,29.57,SSE,165,0.0,-999.0,92,-99.99,,,0.01,0,weatherlink.com 1.10,2013-03-19 21:34:00,
2013-03-19 22:49:00,53.0,51.0,29.57,SSE,165,0.0,-999.0,92,-99.99,,,0.01,0,weatherlink.com 1.10,2013-03-19 21:49:00,
2013-03-19 23:05:00,53.0,51.0,29.56,SSE,165,1.0,-999.0,92,-99.99,,,0.01,0,weatherlink.com 1.10,2013-03-19 22:05:00,
2013-03-19 23:19:00,53.0,51.0,29.56,SSE,165,0.0,-999.0,92,-99.99,,,0.01,0,weatherlink.com 1.10,2013-03-19 22:19:00,
2013-03-19 23:35:00,52.9,51.0,29.56,SSE,165,1.0,-999.0,92,-99.99,,,0.01,0,weatherlink.com 1.10,2013-03-19 22:35:00,